Samara, Russia
Current Conditions -  °F | °C
As of 2:00 PM on Tuesday 21 Oct 2014 (Local Time) from UWWW Reporting Station
Haze Haze  
Wind Chill: 32°   Ceiling: 500
Heat Index: 36°   Visibility: 2.1mi
Dew Point: 34°   Wind: 4mph
Humidity: 93%   Direction: 100°E
Pressure: 29.53"   Gusts: NA
Location:  53.2°N, 50.15°E
Report Text: UWWW 211000Z 10002MPS 3500 BR OVC005 02/01 Q1000 0565034515//99// NOSIG RMK QBB150 QFE737/0982
Loading
Personal Weather Stations






























Interactive Weather Map
Tropical Storm Tracking
New forecast layout! Learn more

10-Day Weather Forecast

Advertisements
Track Severe Weather on mobile